Time,TemperatureF,DewpointF,PressureIn,WindDirection,WindDirectionDegrees,WindSpeedMPH,WindSpeedGustMPH,Humidity,HourlyPrecipIn,Conditions,Clouds,dailyrainin,SolarRadiationWatts/m^2,SoftwareType,DateUTC
2013-09-15 00:01:00,55.0,50.9,29.86,NW,318,0.0,0.0,86,0.00,,,0.00,0.0,custom,2013-09-15 07:01:00,
2013-09-15 00:06:00,54.9,50.8,29.86,NW,318,0.0,0.0,86,0.00,,,0.00,0.0,custom,2013-09-15 07:06:00,
2013-09-15 00:11:00,54.7,50.6,29.87,NW,318,0.0,0.0,86,0.00,,,0.00,0.0,custom,2013-09-15 07:11:00,
2013-09-15 00:21:00,54.5,50.4,29.87,NW,319,0.0,0.0,86,0.00,,,0.00,0.0,custom,2013-09-15 07:21:00,
2013-09-15 00:26:00,54.4,50.3,29.87,NW,318,0.0,0.0,86,0.00,,,0.00,0.0,custom,2013-09-15 07:26:00,
2013-09-15 00:31:00,54.2,50.1,29.86,NW,319,0.0,0.0,86,0.00,,,0.00,0.0,custom,2013-09-15 07:31:00,
2013-09-15 00:36:00,54.1,50.3,29.87,NW,318,0.0,0.0,87,0.00,,,0.00,0.0,custom,2013-09-15 07:36:00,
2013-09-15 00:41:00,54.0,50.2,29.86,NW,318,0.0,0.0,87,0.00,,,0.00,0.0,custom,2013-09-15 07:41:00,
2013-09-15 00:46:00,54.0,50.2,29.87,NW,319,0.0,0.0,87,0.00,,,0.00,0.0,custom,2013-09-15 07:46:00,
2013-09-15 00:51:00,53.9,50.1,29.87,NW,319,0.0,0.0,87,0.00,,,0.00,0.0,custom,2013-09-15 07:51:00,
2013-09-15 00:56:00,53.9,50.1,29.87,NW,319,0.0,0.0,87,0.00,,,0.00,0.0,custom,2013-09-15 07:56:00,
2013-09-15 01:01:00,53.9,50.1,29.87,NW,319,0.0,0.0,87,0.00,,,0.00,0.0,custom,2013-09-15 08:01:00,
2013-09-15 01:11:00,53.5,49.7,29.87,NW,319,0.0,0.0,87,0.00,,,0.00,0.0,custom,2013-09-15 08:11:00,
2013-09-15 01:16:00,53.4,49.6,29.87,NW,319,0.0,0.0,87,0.00,,,0.00,0.0,custom,2013-09-15 08:16:00,
2013-09-15 01:21:00,53.4,49.6,29.87,NW,318,0.0,0.0,87,0.00,,,0.00,0.0,custom,2013-09-15 08:21:00,
2013-09-15 01:26:00,53.3,49.5,29.87,NW,319,0.0,0.0,87,0.00,,,0.00,0.0,custom,2013-09-15 08:26:00,
2013-09-15 01:31:00,53.2,49.4,29.87,NW,319,0.0,0.0,87,0.00,,,0.00,0.0,custom,2013-09-15 08:31:00,
2013-09-15 01:36:00,53.1,49.3,29.87,NW,318,0.0,0.0,87,0.00,,,0.00,0.0,custom,2013-09-15 08:36:00,
2013-09-15 01:41:00,53.0,49.5,29.87,NW,318,0.0,0.0,88,0.00,,,0.00,0.0,custom,2013-09-15 08:41:00,
2013-09-15 01:46:00,53.1,49.6,29.87,NW,319,0.0,0.0,88,0.00,,,0.00,0.0,custom,2013-09-15 08:46:00,
2013-09-15 01:51:00,53.1,49.6,29.87,NW,319,0.0,0.0,88,0.00,,,0.00,0.0,custom,2013-09-15 08:51:00,
2013-09-15 01:56:00,53.2,49.7,29.88,NW,319,0.0,0.0,88,0.00,,,0.00,0.0,custom,2013-09-15 08:56:00,
2013-09-15 02:01:00,53.2,49.7,29.88,NW,319,0.0,0.0,88,0.00,,,0.00,0.0,custom,2013-09-15 09:01:00,
2013-09-15 02:11:00,53.4,49.9,29.87,NW,318,0.0,0.0,88,0.00,,,0.00,0.0,custom,2013-09-15 09:11:00,
2013-09-15 02:16:00,53.5,50.0,29.88,NW,318,0.0,0.0,88,0.00,,,0.00,0.0,custom,2013-09-15 09:16:00,
2013-09-15 02:21:00,53.7,50.2,29.87,NW,319,0.0,0.0,88,0.00,,,0.00,0.0,custom,2013-09-15 09:21:00,
2013-09-15 02:26:00,53.9,50.4,29.88,NW,319,0.0,0.0,88,0.00,,,0.00,0.0,custom,2013-09-15 09:26:00,
2013-09-15 02:31:00,53.9,50.4,29.87,NW,319,0.0,0.0,88,0.00,,,0.00,0.0,custom,2013-09-15 09:31:00,
2013-09-15 02:36:00,54.0,50.5,29.87,NW,318,0.0,0.0,88,0.00,,,0.00,0.0,custom,2013-09-15 09:36:00,
2013-09-15 02:41:00,54.1,50.6,29.87,NW,318,0.0,0.0,88,0.00,,,0.00,0.0,custom,2013-09-15 09:41:00,
2013-09-15 02:46:00,54.2,50.7,29.87,NW,319,0.0,0.0,88,0.00,,,0.00,0.0,custom,2013-09-15 09:46:00,
2013-09-15 02:51:00,54.3,50.8,29.87,NW,318,0.0,0.0,88,0.00,,,0.00,0.0,custom,2013-09-15 09:51:00,
2013-09-15 02:56:00,54.5,51.0,29.87,NW,319,0.0,0.0,88,0.00,,,0.00,0.0,custom,2013-09-15 09:56:00,
2013-09-15 03:01:00,54.7,51.2,29.87,NW,319,0.0,0.0,88,0.00,,,0.00,0.0,custom,2013-09-15 10:01:00,
2013-09-15 03:06:00,54.9,51.4,29.87,NW,318,0.0,0.0,88,0.00,,,0.00,0.0,custom,2013-09-15 10:06:00,
2013-09-15 03:16:00,55.2,51.7,29.88,NW,319,0.0,0.0,88,0.00,,,0.00,0.0,custom,2013-09-15 10:16:00,
2013-09-15 03:26:00,55.5,52.0,29.88,NW,318,0.0,0.0,88,0.00,,,0.00,0.0,custom,2013-09-15 10:26:00,
2013-09-15 03:31:00,55.6,52.1,29.88,NW,318,0.0,0.0,88,0.00,,,0.00,0.0,custom,2013-09-15 10:31:00,
2013-09-15 03:36:00,55.7,52.2,29.88,NW,319,0.0,0.0,88,0.00,,,0.00,0.0,custom,2013-09-15 10:36:00,
2013-09-15 03:41:00,55.7,52.2,29.88,NW,319,0.0,0.0,88,0.00,,,0.00,0.0,custom,2013-09-15 10:41:00,
2013-09-15 03:46:00,55.7,52.2,29.89,NW,319,0.0,0.0,88,0.00,,,0.00,0.0,custom,2013-09-15 10:46:00,
2013-09-15 03:51:00,55.6,51.8,29.89,NW,318,0.0,0.0,87,0.00,,,0.00,0.0,custom,2013-09-15 10:51:00,
2013-09-15 03:56:00,55.6,51.8,29.89,NW,319,0.0,0.0,87,0.00,,,0.00,0.0,custom,2013-09-15 10:56:00,
2013-09-15 04:01:00,55.6,51.8,29.88,NW,319,0.0,0.0,87,0.00,,,0.00,0.0,custom,2013-09-15 11:01:00,
2013-09-15 04:06:00,55.6,51.8,29.88,NW,319,0.0,0.0,87,0.00,,,0.00,0.0,custom,2013-09-15 11:06:00,
2013-09-15 04:11:00,55.6,51.8,29.88,NW,318,0.0,0.0,87,0.00,,,0.00,0.0,custom,2013-09-15 11:11:00,
2013-09-15 04:16:00,55.5,51.7,29.89,NW,319,0.0,0.0,87,0.00,,,0.00,0.0,custom,2013-09-15 11:16:00,
2013-09-15 04:21:00,55.5,51.7,29.88,NW,319,0.0,0.0,87,0.00,,,0.00,0.0,custom,2013-09-15 11:21:00,
2013-09-15 04:26:00,55.5,51.7,29.88,NW,318,0.0,0.0,87,0.00,,,0.00,0.0,custom,2013-09-15 11:26:00,
2013-09-15 04:31:00,55.6,51.8,29.89,NW,318,0.0,0.0,87,0.00,,,0.00,0.0,custom,2013-09-15 11:31:00,
2013-09-15 04:36:00,55.6,51.8,29.89,NW,319,0.0,0.0,87,0.00,,,0.00,0.0,custom,2013-09-15 11:36:00,
2013-09-15 04:41:00,55.6,51.8,29.89,NW,319,0.0,0.0,87,0.00,,,0.00,0.0,custom,2013-09-15 11:41:00,
2013-09-15 04:46:00,55.6,51.8,29.89,NW,318,0.0,0.0,87,0.00,,,0.00,0.0,custom,2013-09-15 11:46:00,
2013-09-15 04:51:00,55.6,51.8,29.89,NW,319,0.0,0.0,87,0.00,,,0.00,0.0,custom,2013-09-15 11:51:00,
2013-09-15 04:56:00,55.6,51.8,29.89,NW,319,0.0,0.0,87,0.00,,,0.00,0.0,custom,2013-09-15 11:56:00,
2013-09-15 05:01:00,55.7,51.9,29.89,NW,318,0.0,0.0,87,0.00,,,0.00,0.0,custom,2013-09-15 12:01:00,
2013-09-15 05:06:00,55.8,52.0,29.89,NW,318,0.0,0.0,87,0.00,,,0.00,0.0,custom,2013-09-15 12:06:00,
2013-09-15 05:11:00,55.8,52.0,29.89,NW,319,0.0,0.0,87,0.00,,,0.00,0.0,custom,2013-09-15 12:11:00,
2013-09-15 05:16:00,55.9,52.1,29.89,NW,318,0.0,0.0,87,0.00,,,0.00,0.0,custom,2013-09-15 12:16:00,
2013-09-15 05:21:00,55.9,52.1,29.89,NW,319,0.0,0.0,87,0.00,,,0.00,0.0,custom,2013-09-15 12:21:00,
2013-09-15 05:26:00,55.9,52.1,29.89,NW,318,0.0,0.0,87,0.00,,,0.00,0.0,custom,2013-09-15 12:26:00,
2013-09-15 05:31:00,55.9,52.1,29.89,NW,319,0.0,0.0,87,0.00,,,0.00,0.0,custom,2013-09-15 12:31:00,
2013-09-15 05:36:00,55.9,52.1,29.89,NW,319,0.0,0.0,87,0.00,,,0.00,0.0,custom,2013-09-15 12:36:00,
2013-09-15 05:41:00,55.9,52.1,29.89,NW,318,0.0,0.0,87,0.00,,,0.00,0.0,custom,2013-09-15 12:41:00,
2013-09-15 05:46:00,55.9,52.1,29.89,NW,319,0.0,0.0,87,0.00,,,0.00,0.0,custom,2013-09-15 12:46:00,
2013-09-15 05:51:00,55.9,52.1,29.89,NW,319,0.0,0.0,87,0.00,,,0.00,0.0,custom,2013-09-15 12:51:00,
2013-09-15 05:56:00,56.0,52.2,29.89,NW,319,0.0,0.0,87,0.00,,,0.00,0.0,custom,2013-09-15 12:56:00,
2013-09-15 06:01:00,56.0,52.2,29.89,NW,318,0.0,0.0,87,0.00,,,0.00,0.0,custom,2013-09-15 13:01:00,
2013-09-15 06:06:00,56.0,52.2,29.90,NW,319,0.0,0.0,87,0.00,,,0.00,0.0,custom,2013-09-15 13:06:00,
2013-09-15 06:11:00,56.0,52.2,29.90,NW,319,0.0,0.0,87,0.00,,,0.00,0.0,custom,2013-09-15 13:11:00,
2013-09-15 06:16:00,56.0,51.9,29.90,NW,318,0.0,0.0,86,0.00,,,0.00,0.0,custom,2013-09-15 13:16:00,
2013-09-15 06:21:00,55.9,51.8,29.90,NW,318,0.0,0.0,86,0.00,,,0.00,0.0,custom,2013-09-15 13:21:00,
2013-09-15 06:26:00,55.9,51.8,29.90,NW,319,0.0,0.0,86,0.00,,,0.00,0.0,custom,2013-09-15 13:26:00,
2013-09-15 06:31:00,55.7,51.6,29.90,NW,319,0.0,0.0,86,0.00,,,0.00,0.0,custom,2013-09-15 13:31:00,
2013-09-15 06:36:00,55.5,51.4,29.90,NW,319,0.0,0.0,86,0.00,,,0.00,0.0,custom,2013-09-15 13:36:00,
2013-09-15 06:41:00,55.4,51.6,29.90,NW,319,0.0,0.0,87,0.00,,,0.00,0.0,custom,2013-09-15 13:41:00,
2013-09-15 06:46:00,55.3,51.5,29.90,NW,319,0.0,0.0,87,0.00,,,0.00,0.0,custom,2013-09-15 13:46:00,
2013-09-15 06:51:00,55.2,51.4,29.90,NW,318,0.0,0.0,87,0.00,,,0.00,0.0,custom,2013-09-15 13:51:00,
2013-09-15 07:01:00,55.1,51.3,29.90,NW,319,0.0,0.0,87,0.00,,,0.00,7.0,custom,2013-09-15 14:01:00,
2013-09-15 07:06:00,55.1,51.3,29.91,NW,319,0.0,0.0,87,0.00,,,0.00,12.0,custom,2013-09-15 14:06:00,
2013-09-15 07:11:00,55.1,51.3,29.91,NW,319,0.0,0.0,87,0.00,,,0.00,16.0,custom,2013-09-15 14:11:00,
2013-09-15 07:21:00,55.2,51.4,29.90,NW,319,0.0,0.0,87,0.00,,,0.00,28.0,custom,2013-09-15 14:21:00,
2013-09-15 07:31:00,55.5,51.7,29.91,NW,318,0.0,0.0,87,0.00,,,0.00,28.0,custom,2013-09-15 14:31:00,
2013-09-15 07:36:00,55.6,51.8,29.91,NW,319,0.0,0.0,87,0.00,,,0.00,37.0,custom,2013-09-15 14:36:00,
2013-09-15 07:46:00,55.9,51.8,29.91,NW,319,0.0,0.0,86,0.00,,,0.00,39.0,custom,2013-09-15 14:46:00,
2013-09-15 07:51:00,56.2,52.1,29.91,NW,319,0.0,0.0,86,0.00,,,0.00,46.0,custom,2013-09-15 14:51:00,
2013-09-15 08:01:00,56.7,52.6,29.91,NW,319,0.0,0.0,86,0.00,,,0.00,72.0,custom,2013-09-15 15:01:00,
2013-09-15 08:06:00,57.0,52.5,29.91,NW,319,0.0,0.0,85,0.00,,,0.00,81.0,custom,2013-09-15 15:06:00,
2013-09-15 08:11:00,57.3,52.8,29.91,NW,318,0.0,0.0,85,0.00,,,0.00,88.0,custom,2013-09-15 15:11:00,
2013-09-15 08:16:00,57.6,53.1,29.91,NW,319,0.0,0.0,85,0.00,,,0.00,97.0,custom,2013-09-15 15:16:00,
2013-09-15 08:21:00,58.0,53.2,29.91,NW,319,0.0,0.0,84,0.00,,,0.00,100.0,custom,2013-09-15 15:21:00,
2013-09-15 08:26:00,58.4,53.6,29.91,NW,319,0.0,0.0,84,0.00,,,0.00,121.0,custom,2013-09-15 15:26:00,
2013-09-15 08:31:00,58.7,53.5,29.91,NW,318,0.0,0.0,83,0.00,,,0.00,130.0,custom,2013-09-15 15:31:00,
2013-09-15 08:36:00,59.0,53.5,29.92,NW,319,0.0,0.0,82,0.00,,,0.00,127.0,custom,2013-09-15 15:36:00,
2013-09-15 08:41:00,59.1,53.6,29.92,NW,319,0.0,0.0,82,0.00,,,0.00,134.0,custom,2013-09-15 15:41:00,
2013-09-15 08:46:00,59.6,54.1,29.93,NW,319,0.0,0.0,82,0.00,,,0.00,142.0,custom,2013-09-15 15:46:00,
2013-09-15 08:51:00,60.0,54.1,29.93,NW,319,0.0,0.0,81,0.00,,,0.00,151.0,custom,2013-09-15 15:51:00,
2013-09-15 08:56:00,60.3,54.4,29.93,NW,319,0.0,0.0,81,0.00,,,0.00,167.0,custom,2013-09-15 15:56:00,
2013-09-15 09:01:00,60.7,54.8,29.93,NW,319,0.0,0.0,81,0.00,,,0.00,149.0,custom,2013-09-15 16:01:00,
2013-09-15 09:06:00,61.0,54.8,29.93,NW,319,0.0,0.0,80,0.00,,,0.00,172.0,custom,2013-09-15 16:06:00,
2013-09-15 09:11:00,61.2,54.6,29.93,NW,319,0.0,0.0,79,0.00,,,0.00,163.0,custom,2013-09-15 16:11:00,
2013-09-15 09:16:00,61.4,54.8,29.92,NW,319,0.0,0.0,79,0.00,,,0.00,151.0,custom,2013-09-15 16:16:00,
2013-09-15 09:21:00,61.5,54.9,29.93,WNW,300,0.0,0.0,79,0.00,,,0.00,199.0,custom,2013-09-15 16:21:00,
2013-09-15 09:26:00,61.6,55.0,29.93,WNW,290,0.0,0.0,79,0.00,,,0.00,563.0,custom,2013-09-15 16:26:00,
2013-09-15 09:31:00,62.2,55.3,29.92,SW,217,0.0,0.0,78,0.00,,,0.00,548.0,custom,2013-09-15 16:31:00,
2013-09-15 09:36:00,63.0,55.7,29.93,ESE,121,0.0,0.0,77,0.00,,,0.00,533.0,custom,2013-09-15 16:36:00,
2013-09-15 09:41:00,64.0,55.5,29.93,ESE,121,0.0,1.0,74,0.00,,,0.00,540.0,custom,2013-09-15 16:41:00,
2013-09-15 09:46:00,64.7,56.2,29.93,NNE,30,1.0,1.0,74,0.00,,,0.00,552.0,custom,2013-09-15 16:46:00,
2013-09-15 09:51:00,65.2,55.9,29.93,NNE,31,1.0,0.0,72,0.00,,,0.00,564.0,custom,2013-09-15 16:51:00,
2013-09-15 09:56:00,65.8,56.5,29.93,ESE,122,0.0,0.0,72,0.00,,,0.00,577.0,custom,2013-09-15 16:56:00,
2013-09-15 10:01:00,66.5,56.0,29.93,ESE,122,0.0,0.0,69,0.00,,,0.00,587.0,custom,2013-09-15 17:01:00,
2013-09-15 10:06:00,67.2,56.3,29.92,ESE,122,0.0,0.0,68,0.00,,,0.00,601.0,custom,2013-09-15 17:06:00,
2013-09-15 10:11:00,68.0,56.6,29.93,ESE,116,0.0,0.0,67,0.00,,,0.00,617.0,custom,2013-09-15 17:11:00,
2013-09-15 10:16:00,68.7,56.9,29.93,NE,56,0.0,1.0,66,0.00,,,0.00,629.0,custom,2013-09-15 17:16:00,
2013-09-15 10:21:00,68.8,56.5,29.93,NNE,28,1.0,1.0,65,0.00,,,0.00,642.0,custom,2013-09-15 17:21:00,
2013-09-15 10:31:00,69.0,56.7,29.93,NE,50,0.0,0.0,65,0.00,,,0.00,666.0,custom,2013-09-15 17:31:00,
2013-09-15 10:36:00,69.2,56.5,29.93,NE,50,0.0,0.0,64,0.00,,,0.00,677.0,custom,2013-09-15 17:36:00,
2013-09-15 10:41:00,69.4,56.7,29.93,NNE,22,0.0,0.0,64,0.00,,,0.00,659.0,custom,2013-09-15 17:41:00,
2013-09-15 10:46:00,69.4,56.7,29.93,NNW,341,0.0,1.0,64,0.00,,,0.00,51.0,custom,2013-09-15 17:46:00,
2013-09-15 10:51:00,69.7,57.0,29.93,NW,319,0.0,0.0,64,0.00,,,0.00,97.0,custom,2013-09-15 17:51:00,
2013-09-15 10:56:00,70.0,57.3,29.93,North,360,0.0,1.0,64,0.00,,,0.00,717.0,custom,2013-09-15 17:56:00,
2013-09-15 11:01:00,70.4,57.2,29.93,NE,36,0.0,0.0,63,0.00,,,0.00,724.0,custom,2013-09-15 18:01:00,
2013-09-15 11:06:00,70.4,57.2,29.93,NE,36,1.0,1.0,63,0.00,,,0.00,733.0,custom,2013-09-15 18:06:00,
2013-09-15 11:11:00,70.7,57.9,29.93,ENE,57,0.0,0.0,64,0.00,,,0.00,745.0,custom,2013-09-15 18:11:00,
2013-09-15 11:16:00,70.9,57.7,29.93,North,355,1.0,0.0,63,0.00,,,0.00,752.0,custom,2013-09-15 18:16:00,
2013-09-15 11:21:00,70.9,57.7,29.93,NNW,334,1.0,0.0,63,0.00,,,0.00,761.0,custom,2013-09-15 18:21:00,
2013-09-15 11:26:00,71.1,57.9,29.93,ENE,59,1.0,0.0,63,0.00,,,0.00,766.0,custom,2013-09-15 18:26:00,
2013-09-15 11:31:00,71.5,58.2,29.93,ENE,62,1.0,0.0,63,0.00,,,0.00,777.0,custom,2013-09-15 18:31:00,
2013-09-15 11:36:00,71.7,58.0,29.92,NNE,19,1.0,3.0,62,0.00,,,0.00,784.0,custom,2013-09-15 18:36:00,
2013-09-15 11:41:00,71.6,57.9,29.92,NNE,27,1.0,1.0,62,0.00,,,0.00,789.0,custom,2013-09-15 18:41:00,
2013-09-15 11:46:00,71.8,58.1,29.92,East,80,1.0,0.0,62,0.00,,,0.00,800.0,custom,2013-09-15 18:46:00,
2013-09-15 11:51:00,72.2,58.0,29.92,ENE,78,0.0,0.0,61,0.00,,,0.00,800.0,custom,2013-09-15 18:51:00,
2013-09-15 11:56:00,72.6,58.4,29.92,ENE,76,0.0,1.0,61,0.00,,,0.00,807.0,custom,2013-09-15 18:56:00,
2013-09-15 12:01:00,72.6,57.9,29.92,East,81,1.0,0.0,60,0.00,,,0.00,809.0,custom,2013-09-15 19:01:00,
2013-09-15 12:06:00,72.7,58.0,29.92,NE,42,1.0,0.0,60,0.00,,,0.00,814.0,custom,2013-09-15 19:06:00,
2013-09-15 12:11:00,73.0,58.3,29.92,East,96,1.0,0.0,60,0.00,,,0.00,816.0,custom,2013-09-15 19:11:00,
2013-09-15 12:16:00,73.3,59.0,29.92,NW,325,1.0,1.0,61,0.00,,,0.00,819.0,custom,2013-09-15 19:16:00,
2013-09-15 12:21:00,73.2,58.5,29.92,NNE,32,1.0,0.0,60,0.00,,,0.00,823.0,custom,2013-09-15 19:21:00,
2013-09-15 12:26:00,73.2,58.0,29.92,NE,52,1.0,0.0,59,0.00,,,0.00,828.0,custom,2013-09-15 19:26:00,
2013-09-15 12:31:00,73.7,58.9,29.92,North,360,1.0,0.0,60,0.00,,,0.00,828.0,custom,2013-09-15 19:31:00,
2013-09-15 12:36:00,74.1,58.8,29.91,ENE,71,1.0,1.0,59,0.00,,,0.00,828.0,custom,2013-09-15 19:36:00,
2013-09-15 12:41:00,74.3,58.6,29.92,NNE,13,1.0,1.0,58,0.00,,,0.00,830.0,custom,2013-09-15 19:41:00,
2013-09-15 12:46:00,74.4,59.1,29.92,NE,53,0.0,0.0,59,0.00,,,0.00,830.0,custom,2013-09-15 19:46:00,
2013-09-15 12:51:00,74.8,59.5,29.92,NNE,29,1.0,0.0,59,0.00,,,0.00,833.0,custom,2013-09-15 19:51:00,
2013-09-15 13:01:00,75.3,59.0,29.91,NNE,31,1.0,2.0,57,0.00,,,0.00,831.0,custom,2013-09-15 20:01:00,
2013-09-15 13:06:00,75.4,59.6,29.91,NNW,345,1.0,1.0,58,0.00,,,0.00,830.0,custom,2013-09-15 20:06:00,
2013-09-15 13:11:00,75.6,59.3,29.91,NW,326,1.0,1.0,57,0.00,,,0.00,830.0,custom,2013-09-15 20:11:00,
2013-09-15 13:21:00,76.4,59.5,29.91,NE,34,1.0,1.0,56,0.00,,,0.00,823.0,custom,2013-09-15 20:21:00,
2013-09-15 13:26:00,76.7,59.3,29.91,NE,34,1.0,4.0,55,0.00,,,0.00,821.0,custom,2013-09-15 20:26:00,
2013-09-15 13:36:00,76.5,59.6,29.91,WNW,284,2.0,2.0,56,0.00,,,0.00,816.0,custom,2013-09-15 20:36:00,
2013-09-15 13:41:00,76.7,59.3,29.91,NNW,345,2.0,4.0,55,0.00,,,0.00,814.0,custom,2013-09-15 20:41:00,
2013-09-15 13:46:00,76.8,59.4,29.90,NNW,345,2.0,0.0,55,0.00,,,0.00,805.0,custom,2013-09-15 20:46:00,
2013-09-15 13:51:00,77.1,59.7,29.90,North,5,2.0,3.0,55,0.00,,,0.00,803.0,custom,2013-09-15 20:51:00,
2013-09-15 14:01:00,77.3,59.3,29.90,NNW,329,2.0,2.0,54,0.00,,,0.00,791.0,custom,2013-09-15 21:01:00,
2013-09-15 14:06:00,77.2,59.8,29.90,North,9,2.0,3.0,55,0.00,,,0.00,786.0,custom,2013-09-15 21:06:00,
2013-09-15 14:11:00,77.2,59.8,29.90,NNW,327,2.0,2.0,55,0.00,,,0.00,780.0,custom,2013-09-15 21:11:00,
2013-09-15 14:16:00,77.4,59.9,29.90,NNW,343,2.0,3.0,55,0.00,,,0.00,772.0,custom,2013-09-15 21:16:00,
2013-09-15 14:21:00,77.4,59.4,29.90,NW,323,2.0,2.0,54,0.00,,,0.00,763.0,custom,2013-09-15 21:21:00,
2013-09-15 14:26:00,77.5,60.0,29.90,NNW,340,2.0,2.0,55,0.00,,,0.00,756.0,custom,2013-09-15 21:26:00,
2013-09-15 14:31:00,77.5,59.5,29.90,NNW,347,2.0,3.0,54,0.00,,,0.00,747.0,custom,2013-09-15 21:31:00,
2013-09-15 14:36:00,77.3,59.9,29.89,NW,323,2.0,2.0,55,0.00,,,0.00,740.0,custom,2013-09-15 21:36:00,
2013-09-15 14:41:00,77.4,59.9,29.89,NNE,32,2.0,2.0,55,0.00,,,0.00,731.0,custom,2013-09-15 21:41:00,
2013-09-15 14:46:00,77.4,59.9,29.89,NE,54,2.0,0.0,55,0.00,,,0.00,724.0,custom,2013-09-15 21:46:00,
2013-09-15 14:51:00,77.3,59.9,29.89,WNW,298,3.0,3.0,55,0.00,,,0.00,712.0,custom,2013-09-15 21:51:00,
2013-09-15 14:56:00,77.2,59.8,29.89,WNW,293,2.0,5.0,55,0.00,,,0.00,707.0,custom,2013-09-15 21:56:00,
2013-09-15 15:01:00,77.5,60.0,29.89,NW,307,2.0,3.0,55,0.00,,,0.00,698.0,custom,2013-09-15 22:01:00,
2013-09-15 15:06:00,77.5,60.0,29.88,North,9,3.0,6.0,55,0.00,,,0.00,638.0,custom,2013-09-15 22:06:00,
2013-09-15 15:11:00,77.4,59.9,29.88,North,349,3.0,6.0,55,0.00,,,0.00,673.0,custom,2013-09-15 22:11:00,
2013-09-15 15:16:00,77.4,60.5,29.88,NNW,340,2.0,2.0,56,0.00,,,0.00,663.0,custom,2013-09-15 22:16:00,
2013-09-15 15:26:00,77.6,59.6,29.88,NNE,20,2.0,0.0,54,0.00,,,0.00,248.0,custom,2013-09-15 22:26:00,
2013-09-15 15:31:00,77.6,60.1,29.87,NNE,20,2.0,0.0,55,0.00,,,0.00,269.0,custom,2013-09-15 22:31:00,
2013-09-15 15:36:00,77.8,59.8,29.87,ENE,64,2.0,2.0,54,0.00,,,0.00,47.0,custom,2013-09-15 22:36:00,
2013-09-15 15:41:00,77.9,59.9,29.87,NW,310,2.0,2.0,54,0.00,,,0.00,39.0,custom,2013-09-15 22:41:00,
2013-09-15 15:46:00,77.9,59.4,29.87,NNW,327,3.0,3.0,53,0.00,,,0.00,37.0,custom,2013-09-15 22:46:00,
2013-09-15 15:51:00,77.9,59.4,29.87,NNW,327,2.0,2.0,53,0.00,,,0.00,49.0,custom,2013-09-15 22:51:00,
2013-09-15 15:56:00,77.8,59.3,29.87,NNW,345,2.0,3.0,53,0.00,,,0.00,35.0,custom,2013-09-15 22:56:00,
2013-09-15 16:01:00,77.8,60.3,29.87,NW,308,2.0,2.0,55,0.00,,,0.00,37.0,custom,2013-09-15 23:01:00,
2013-09-15 16:06:00,77.5,60.0,29.87,North,5,2.0,2.0,55,0.00,,,0.00,35.0,custom,2013-09-15 23:06:00,
2013-09-15 16:11:00,77.3,59.9,29.87,NNE,15,2.0,0.0,55,0.00,,,0.00,35.0,custom,2013-09-15 23:11:00,
2013-09-15 16:16:00,77.1,60.2,29.87,East,86,2.0,0.0,56,0.00,,,0.00,33.0,custom,2013-09-15 23:16:00,
2013-09-15 16:21:00,77.1,60.2,29.87,NNW,333,2.0,2.0,56,0.00,,,0.00,33.0,custom,2013-09-15 23:21:00,
2013-09-15 16:26:00,77.0,60.1,29.86,WNW,290,2.0,2.0,56,0.00,,,0.00,33.0,custom,2013-09-15 23:26:00,
2013-09-15 16:31:00,77.1,59.2,29.86,North,360,2.0,0.0,54,0.00,,,0.00,49.0,custom,2013-09-15 23:31:00,
2013-09-15 16:36:00,77.3,59.3,29.86,NNW,340,1.0,4.0,54,0.00,,,0.00,44.0,custom,2013-09-15 23:36:00,
2013-09-15 16:41:00,77.3,59.3,29.86,North,360,2.0,3.0,54,0.00,,,0.00,39.0,custom,2013-09-15 23:41:00,
2013-09-15 16:46:00,77.3,58.8,29.86,NNW,332,2.0,2.0,53,0.00,,,0.00,151.0,custom,2013-09-15 23:46:00,
2013-09-15 16:51:00,77.2,59.2,29.86,NW,325,2.0,2.0,54,0.00,,,0.00,67.0,custom,2013-09-15 23:51:00,
2013-09-15 17:01:00,76.9,59.5,29.86,NNE,13,2.0,4.0,55,0.00,,,0.00,42.0,custom,2013-09-16 00:01:00,
2013-09-15 17:06:00,76.7,59.8,29.86,NNW,338,2.0,0.0,56,0.00,,,0.00,30.0,custom,2013-09-16 00:06:00,
2013-09-15 17:11:00,76.6,59.7,29.86,NNE,22,2.0,2.0,56,0.00,,,0.00,30.0,custom,2013-09-16 00:11:00,
2013-09-15 17:16:00,76.6,59.2,29.86,NE,52,1.0,0.0,55,0.00,,,0.00,30.0,custom,2013-09-16 00:16:00,
2013-09-15 17:21:00,76.5,59.1,29.86,North,355,1.0,0.0,55,0.00,,,0.00,28.0,custom,2013-09-16 00:21:00,
2013-09-15 17:26:00,76.4,59.0,29.86,North,5,1.0,1.0,55,0.00,,,0.00,28.0,custom,2013-09-16 00:26:00,
2013-09-15 17:31:00,76.5,59.6,29.86,WNW,303,1.0,0.0,56,0.00,,,0.00,28.0,custom,2013-09-16 00:31:00,
2013-09-15 17:36:00,76.4,59.0,29.86,NW,310,1.0,0.0,55,0.00,,,0.00,26.0,custom,2013-09-16 00:36:00,
2013-09-15 17:41:00,76.2,58.8,29.86,WNW,286,1.0,2.0,55,0.00,,,0.00,26.0,custom,2013-09-16 00:41:00,
2013-09-15 17:46:00,76.1,59.2,29.86,WNW,296,1.0,0.0,56,0.00,,,0.00,25.0,custom,2013-09-16 00:46:00,
2013-09-15 17:51:00,75.9,59.1,29.86,North,9,0.0,2.0,56,0.00,,,0.00,25.0,custom,2013-09-16 00:51:00,
2013-09-15 17:56:00,75.8,59.0,29.86,ENE,63,1.0,0.0,56,0.00,,,0.00,25.0,custom,2013-09-16 00:56:00,
2013-09-15 18:01:00,75.6,59.3,29.86,NW,317,0.0,0.0,57,0.00,,,0.00,23.0,custom,2013-09-16 01:01:00,
2013-09-15 18:11:00,75.1,59.3,29.86,West,276,0.0,0.0,58,0.00,,,0.00,21.0,custom,2013-09-16 01:11:00,
2013-09-15 18:16:00,74.8,59.0,29.86,WNW,297,0.0,0.0,58,0.00,,,0.00,21.0,custom,2013-09-16 01:16:00,
2013-09-15 18:21:00,74.5,58.7,29.86,SW,225,0.0,0.0,58,0.00,,,0.00,19.0,custom,2013-09-16 01:21:00,
2013-09-15 18:26:00,74.2,58.9,29.86,North,355,0.0,0.0,59,0.00,,,0.00,18.0,custom,2013-09-16 01:26:00,
2013-09-15 18:31:00,73.8,58.6,29.86,NW,321,0.0,1.0,59,0.00,,,0.00,18.0,custom,2013-09-16 01:31:00,
2013-09-15 18:41:00,73.2,58.5,29.86,NNW,337,0.0,1.0,60,0.00,,,0.00,14.0,custom,2013-09-16 01:41:00,
2013-09-15 18:46:00,72.9,58.6,29.87,NNE,21,0.0,0.0,61,0.00,,,0.00,12.0,custom,2013-09-16 01:46:00,
2013-09-15 18:56:00,72.2,58.4,29.87,North,5,0.0,0.0,62,0.00,,,0.00,11.0,custom,2013-09-16 01:56:00,
2013-09-15 19:01:00,71.8,58.5,29.87,North,9,0.0,0.0,63,0.00,,,0.00,9.0,custom,2013-09-16 02:01:00,
2013-09-15 19:06:00,71.4,58.6,29.87,North,360,0.0,1.0,64,0.00,,,0.00,7.0,custom,2013-09-16 02:06:00,
2013-09-15 19:16:00,70.7,59.2,29.87,NNW,346,0.0,0.0,67,0.00,,,0.00,0.0,custom,2013-09-16 02:16:00,
2013-09-15 19:21:00,70.3,59.2,29.87,NNW,329,1.0,1.0,68,0.00,,,0.00,0.0,custom,2013-09-16 02:21:00,
2013-09-15 19:31:00,69.7,59.1,29.87,NNE,17,0.0,0.0,69,0.00,,,0.00,0.0,custom,2013-09-16 02:31:00,
2013-09-15 19:41:00,69.2,59.0,29.88,NNE,17,0.0,0.0,70,0.00,,,0.00,0.0,custom,2013-09-16 02:41:00,
2013-09-15 19:51:00,68.6,59.2,29.88,NNW,344,0.0,0.0,72,0.00,,,0.00,0.0,custom,2013-09-16 02:51:00,
2013-09-15 19:56:00,68.4,59.0,29.88,NNW,344,0.0,0.0,72,0.00,,,0.00,0.0,custom,2013-09-16 02:56:00,
2013-09-15 20:01:00,68.1,59.1,29.88,NNW,344,0.0,0.0,73,0.00,,,0.00,0.0,custom,2013-09-16 03:01:00,
2013-09-15 20:06:00,67.9,58.9,29.88,NNW,344,0.0,0.0,73,0.00,,,0.00,0.0,custom,2013-09-16 03:06:00,
2013-09-15 20:11:00,67.6,59.0,29.89,NNW,345,0.0,0.0,74,0.00,,,0.00,0.0,custom,2013-09-16 03:11:00,
2013-09-15 20:16:00,67.3,59.1,29.89,NNW,344,0.0,0.0,75,0.00,,,0.00,0.0,custom,2013-09-16 03:16:00,
2013-09-15 20:21:00,67.0,58.8,29.89,NNW,344,0.0,0.0,75,0.00,,,0.00,0.0,custom,2013-09-16 03:21:00,
2013-09-15 20:26:00,66.8,59.0,29.89,NNW,344,0.0,0.0,76,0.00,,,0.00,0.0,custom,2013-09-16 03:26:00,
2013-09-15 20:31:00,66.5,59.1,29.89,NNW,344,0.0,0.0,77,0.00,,,0.00,0.0,custom,2013-09-16 03:31:00,
2013-09-15 20:36:00,66.3,58.9,29.89,NNW,345,0.0,0.0,77,0.00,,,0.00,0.0,custom,2013-09-16 03:36:00,
2013-09-15 20:46:00,66.0,58.9,29.90,NW,322,0.0,0.0,78,0.00,,,0.00,0.0,custom,2013-09-16 03:46:00,
2013-09-15 20:51:00,65.9,58.8,29.90,NW,322,0.0,0.0,78,0.00,,,0.00,0.0,custom,2013-09-16 03:51:00,
2013-09-15 20:56:00,65.7,58.6,29.90,NW,322,0.0,0.0,78,0.00,,,0.00,0.0,custom,2013-09-16 03:56:00,
2013-09-15 21:01:00,65.5,58.8,29.90,NW,322,0.0,0.0,79,0.00,,,0.00,0.0,custom,2013-09-16 04:01:00,
2013-09-15 21:06:00,65.3,58.6,29.91,NW,322,0.0,0.0,79,0.00,,,0.00,0.0,custom,2013-09-16 04:06:00,
2013-09-15 21:11:00,65.1,58.4,29.91,NW,322,0.0,0.0,79,0.00,,,0.00,0.0,custom,2013-09-16 04:11:00,
2013-09-15 21:16:00,64.9,58.6,29.91,NW,322,0.0,0.0,80,0.00,,,0.00,0.0,custom,2013-09-16 04:16:00,
2013-09-15 21:21:00,64.7,58.4,29.91,NW,322,0.0,0.0,80,0.00,,,0.00,0.0,custom,2013-09-16 04:21:00,
2013-09-15 21:26:00,64.5,58.5,29.91,NW,321,0.0,0.0,81,0.00,,,0.00,0.0,custom,2013-09-16 04:26:00,
2013-09-15 21:31:00,64.2,58.2,29.91,NW,322,0.0,0.0,81,0.00,,,0.00,0.0,custom,2013-09-16 04:31:00,
2013-09-15 21:36:00,64.0,58.4,29.91,NW,322,0.0,0.0,82,0.00,,,0.00,0.0,custom,2013-09-16 04:36:00,
2013-09-15 21:41:00,63.9,58.3,29.91,NW,322,0.0,0.0,82,0.00,,,0.00,0.0,custom,2013-09-16 04:41:00,
2013-09-15 21:46:00,63.7,58.1,29.91,NW,322,0.0,0.0,82,0.00,,,0.00,0.0,custom,2013-09-16 04:46:00,
2013-09-15 21:51:00,63.5,57.9,29.91,NW,321,0.0,0.0,82,0.00,,,0.00,0.0,custom,2013-09-16 04:51:00,
2013-09-15 21:56:00,63.3,58.0,29.91,NW,322,0.0,0.0,83,0.00,,,0.00,0.0,custom,2013-09-16 04:56:00,
2013-09-15 22:01:00,63.2,57.9,29.91,NW,322,0.0,0.0,83,0.00,,,0.00,0.0,custom,2013-09-16 05:01:00,
2013-09-15 22:06:00,63.0,58.1,29.91,NW,322,0.0,0.0,84,0.00,,,0.00,0.0,custom,2013-09-16 05:06:00,
2013-09-15 22:11:00,62.9,58.0,29.91,NW,322,0.0,0.0,84,0.00,,,0.00,0.0,custom,2013-09-16 05:11:00,
2013-09-15 22:16:00,62.8,58.2,29.91,NW,322,0.0,0.0,85,0.00,,,0.00,0.0,custom,2013-09-16 05:16:00,
2013-09-15 22:21:00,62.8,58.2,29.91,NW,322,0.0,0.0,85,0.00,,,0.00,0.0,custom,2013-09-16 05:21:00,
2013-09-15 22:26:00,62.7,58.1,29.91,NW,322,0.0,0.0,85,0.00,,,0.00,0.0,custom,2013-09-16 05:26:00,
2013-09-15 22:31:00,62.6,58.0,29.92,NW,322,0.0,0.0,85,0.00,,,0.00,0.0,custom,2013-09-16 05:31:00,
2013-09-15 22:36:00,62.5,57.9,29.91,NW,322,0.0,0.0,85,0.00,,,0.00,0.0,custom,2013-09-16 05:36:00,
2013-09-15 22:41:00,62.3,57.7,29.91,NW,322,0.0,0.0,85,0.00,,,0.00,0.0,custom,2013-09-16 05:41:00,
2013-09-15 22:46:00,62.2,57.6,29.91,NW,322,0.0,0.0,85,0.00,,,0.00,0.0,custom,2013-09-16 05:46:00,
2013-09-15 22:51:00,62.1,57.5,29.91,NW,322,0.0,0.0,85,0.00,,,0.00,0.0,custom,2013-09-16 05:51:00,
2013-09-15 22:56:00,61.9,57.7,29.91,NW,322,0.0,0.0,86,0.00,,,0.00,0.0,custom,2013-09-16 05:56:00,
2013-09-15 23:01:00,61.8,57.6,29.92,NW,322,0.0,0.0,86,0.00,,,0.00,0.0,custom,2013-09-16 06:01:00,
2013-09-15 23:06:00,61.6,57.4,29.92,NW,322,0.0,0.0,86,0.00,,,0.00,0.0,custom,2013-09-16 06:06:00,
2013-09-15 23:11:00,61.5,57.3,29.92,NW,322,0.0,0.0,86,0.00,,,0.00,0.0,custom,2013-09-16 06:11:00,
2013-09-15 23:16:00,61.3,57.1,29.92,NW,322,0.0,0.0,86,0.00,,,0.00,0.0,custom,2013-09-16 06:16:00,
2013-09-15 23:21:00,61.2,57.3,29.92,NW,322,0.0,0.0,87,0.00,,,0.00,0.0,custom,2013-09-16 06:21:00,
2013-09-15 23:26:00,61.1,57.2,29.92,NW,322,0.0,0.0,87,0.00,,,0.00,0.0,custom,2013-09-16 06:26:00,
2013-09-15 23:31:00,61.0,57.1,29.92,NW,322,0.0,0.0,87,0.00,,,0.00,0.0,custom,2013-09-16 06:31:00,
2013-09-15 23:36:00,61.0,57.1,29.92,NW,322,0.0,0.0,87,0.00,,,0.00,0.0,custom,2013-09-16 06:36:00,
2013-09-15 23:41:00,61.0,57.1,29.92,NW,322,0.0,0.0,87,0.00,,,0.00,0.0,custom,2013-09-16 06:41:00,
2013-09-15 23:46:00,61.0,57.1,29.92,NW,322,0.0,0.0,87,0.00,,,0.00,0.0,custom,2013-09-16 06:46:00,
2013-09-15 23:51:00,61.1,57.2,29.92,NW,322,0.0,0.0,87,0.00,,,0.00,0.0,custom,2013-09-16 06:51:00,
2013-09-15 23:56:00,61.1,57.2,29.92,NW,323,0.0,0.0,87,0.00,,,0.00,0.0,custom,2013-09-16 06:56:00,